Terminal Aerodrome Forecast
Issued by NWS

Home | Current Version | Previous Version | Text Only | Print | Product List | Glossary On
Versions: 1 2 3 4 5 6 7 8 9 10 11 12 13 14 15 16 17 18 19 20
000
FTUS43 KDVN 190500
TAFCID
TAF
KCID 190520Z 1906/2006 21006KT 6SM BR BKN200
     FM190800 22005KT 4SM BR VCTS BKN050CB
     FM191300 24006KT P6SM BKN250
     FM191700 28011KT P6SM BKN035
     FM200000 28005KT P6SM SCT050=

USA.gov is the U.S. government's official web portal to all federal, state and local government web resources and services.